createdAt,value
2022-11-28T00:03:50.122Z,7.07
2022-11-28T00:08:52.772Z,4.30
2022-11-28T00:13:55.767Z,6.60
2022-11-28T00:19:01.069Z,4.70
2022-11-28T00:24:03.791Z,7.55
2022-11-28T00:29:07.039Z,4.50
2022-11-28T00:34:13.569Z,6.05
2022-11-28T00:39:16.560Z,4.15
2022-11-28T00:44:18.924Z,7.32
2022-11-28T00:49:21.251Z,3.55
2022-11-28T00:54:23.437Z,3.70
2022-11-28T00:59:25.645Z,4.55
2022-11-28T01:04:27.929Z,4.65
2022-11-28T01:09:30.154Z,4.78
2022-11-28T01:14:33.752Z,7.63
2022-11-28T01:19:35.980Z,5.82
2022-11-28T01:24:38.115Z,4.50
2022-11-28T01:29:40.234Z,6.32
2022-11-28T01:34:42.786Z,6.28
2022-11-28T01:39:45.203Z,5.40
2022-11-28T01:44:50.487Z,4.32
2022-11-28T01:49:53.920Z,7.53
2022-11-28T01:55:00.885Z,7.88
2022-11-28T02:00:16.055Z,7.13
2022-11-28T02:05:20.449Z,8.73
2022-11-28T02:10:28.329Z,9.07
2022-11-28T02:15:55.512Z,4.43
2022-11-28T02:21:24.204Z,8.15
2022-11-28T02:26:46.701Z,7.30
2022-11-28T02:32:07.449Z,5.88
2022-11-28T02:37:30.194Z,6.10
2022-11-28T02:43:08.771Z,7.47
2022-11-28T02:48:23.287Z,7.10
2022-11-28T02:53:30.548Z,9.35
2022-11-28T02:58:32.818Z,7.93
2022-11-28T03:03:56.866Z,5.40
2022-11-28T03:09:26.455Z,6.65
2022-11-28T03:14:41.685Z,12.15
2022-11-28T03:19:56.190Z,7.90
2022-11-28T03:25:05.753Z,4.65
2022-11-28T03:30:17.058Z,10.55
2022-11-28T03:35:23.544Z,6.22
2022-11-28T03:40:29.303Z,10.65
2022-11-28T03:45:38.924Z,4.32
2022-11-28T03:50:48.327Z,4.43
2022-11-28T03:56:16.262Z,7.43
2022-11-28T04:01:30.085Z,8.77
2022-11-28T04:06:55.927Z,9.68
2022-11-28T04:12:05.109Z,5.25
2022-11-28T04:17:39.662Z,5.75
2022-11-28T04:22:51.465Z,6.72
2022-11-28T04:28:07.503Z,1.60
2022-11-28T04:38:14.610Z,3.17
2022-11-28T04:43:27.034Z,2.50
2022-11-28T04:48:34.318Z,5.10
2022-11-28T04:54:06.095Z,4.15
2022-11-28T04:59:09.848Z,2.88
2022-11-28T05:04:14.539Z,4.35
2022-11-28T05:09:16.828Z,9.20
2022-11-28T05:14:19.172Z,7.95
2022-11-28T05:19:21.292Z,9.25
2022-11-28T05:24:26.769Z,9.35
2022-11-28T05:29:31.431Z,13.35
2022-11-28T05:34:33.676Z,10.30
2022-11-28T05:39:35.797Z,12.73
2022-11-28T05:44:38.027Z,9.98
2022-11-28T05:49:40.339Z,7.43
2022-11-28T05:54:42.716Z,10.32
2022-11-28T05:59:45.210Z,14.38
2022-11-28T06:04:47.593Z,10.52
2022-11-28T06:09:49.786Z,8.30
2022-11-28T06:14:51.879Z,8.38
2022-11-28T06:19:54.086Z,7.82
2022-11-28T06:24:56.186Z,2.65
2022-11-28T06:29:58.374Z,6.85
2022-11-28T06:35:00.534Z,4.25
2022-11-28T06:40:02.892Z,4.10
2022-11-28T06:45:06.082Z,4.95
2022-11-28T06:50:09.713Z,2.65
2022-11-28T06:55:11.922Z,2.85
2022-11-28T07:00:14.758Z,3.45
2022-11-28T07:05:17.116Z,3.33
2022-11-28T07:10:20.027Z,5.57
2022-11-28T07:15:22.483Z,3.83
2022-11-28T07:20:24.679Z,6.30
2022-11-28T07:25:26.918Z,6.22
2022-11-28T07:30:29.262Z,9.75
2022-11-28T07:35:33.992Z,7.05
2022-11-28T07:40:36.220Z,5.72
2022-11-28T07:45:59.362Z,7.63
2022-11-28T07:51:14.480Z,7.68
2022-11-28T07:56:19.424Z,3.63
2022-11-28T08:01:26.814Z,6.82
2022-11-28T08:06:30.794Z,3.50
2022-11-28T08:11:33.848Z,7.05
2022-11-28T08:16:37.117Z,5.63
2022-11-28T08:21:39.493Z,4.45
2022-11-28T08:26:41.699Z,3.97
2022-11-28T08:31:44.039Z,1.92
2022-11-28T08:36:47.482Z,1.58
2022-11-28T08:41:49.925Z,4.35
2022-11-28T08:46:52.619Z,4.97
2022-11-28T08:51:54.924Z,2.67
2022-11-28T08:56:57.339Z,3.72
2022-11-28T09:01:59.532Z,3.45
2022-11-28T09:07:02.276Z,4.97
2022-11-28T09:12:04.609Z,5.53
2022-11-28T09:17:07.261Z,2.47
2022-11-28T09:22:09.831Z,6.30
2022-11-28T09:27:12.102Z,4.95
2022-11-28T09:32:14.612Z,6.43
2022-11-28T09:37:16.992Z,7.25
2022-11-28T09:42:38.213Z,4.68
2022-11-28T09:47:43.539Z,6.35
2022-11-28T09:53:28.716Z,5.10
2022-11-28T09:58:41.485Z,5.40
2022-11-28T10:04:09.891Z,4.90
2022-11-28T10:09:15.306Z,4.28
2022-11-28T10:14:59.489Z,5.10
2022-11-28T10:20:25.919Z,6.47
2022-11-28T10:30:36.426Z,10.82
2022-11-28T10:35:50.930Z,11.05
2022-11-28T10:41:05.271Z,5.95
2022-11-28T10:46:23.226Z,5.95
2022-11-28T10:51:50.570Z,3.72
2022-11-28T10:57:11.846Z,2.83
2022-11-28T11:02:38.158Z,6.32
2022-11-28T11:12:47.206Z,5.70
2022-11-28T11:17:52.760Z,8.43
2022-11-28T11:23:19.091Z,5.88
2022-11-28T11:33:43.547Z,8.70
2022-11-28T11:38:45.896Z,10.00
2022-11-28T11:43:48.072Z,9.05
2022-11-28T11:48:53.918Z,13.38
2022-11-28T11:59:15.259Z,13.60
2022-11-28T12:04:45.455Z,13.48
2022-11-28T12:09:54.513Z,9.52
2022-11-28T12:14:57.206Z,11.00
2022-11-28T12:20:33.122Z,8.00
2022-11-28T12:25:51.847Z,12.82
2022-11-28T12:30:56.905Z,9.02
2022-11-28T12:36:14.729Z,12.00
2022-11-28T12:41:32.980Z,5.95
2022-11-28T12:46:47.847Z,4.28
2022-11-28T12:52:08.801Z,3.25
2022-11-28T12:57:33.499Z,3.13
2022-11-28T13:03:25.854Z,6.30
2022-11-28T13:08:28.244Z,6.05
2022-11-28T13:13:54.100Z,9.95
2022-11-28T13:19:03.676Z,9.82
2022-11-28T13:24:14.971Z,8.07
2022-11-28T13:29:33.544Z,6.85
2022-11-28T13:34:37.514Z,9.13
2022-11-28T13:39:49.501Z,11.38
2022-11-28T13:51:22.819Z,11.80
2022-11-28T13:56:28.074Z,7.93
2022-11-28T14:01:48.324Z,9.07
2022-11-28T14:06:59.165Z,9.55
2022-11-28T14:12:20.388Z,13.32
2022-11-28T14:17:48.623Z,10.40
2022-11-28T14:22:56.953Z,8.43
2022-11-28T14:28:04.599Z,9.10
2022-11-28T14:33:19.135Z,14.23
2022-11-28T14:38:31.486Z,11.50
2022-11-28T14:43:40.462Z,10.68
2022-11-28T14:49:02.812Z,16.17
2022-11-28T14:54:23.187Z,12.25
2022-11-28T14:59:33.029Z,16.42
2022-11-28T15:04:44.819Z,11.90
2022-11-28T15:10:26.282Z,9.90
2022-11-28T15:15:32.139Z,12.88
2022-11-28T15:25:52.077Z,10.38
2022-11-28T15:31:00.504Z,11.77
2022-11-28T15:36:20.938Z,12.18
2022-11-28T15:41:26.526Z,9.68
2022-11-28T15:46:31.051Z,11.90
2022-11-28T15:51:35.768Z,12.18
2022-11-28T15:56:38.373Z,11.68
2022-11-28T16:01:41.240Z,8.20
2022-11-28T16:06:49.254Z,10.68
2022-11-28T16:11:53.971Z,9.88
2022-11-28T16:17:01.853Z,6.32
2022-11-28T16:22:17.228Z,13.40
2022-11-28T16:27:39.179Z,8.87
2022-11-28T16:32:41.607Z,7.03
2022-11-28T16:37:43.963Z,14.95
2022-11-28T16:42:54.004Z,8.02
2022-11-28T16:48:07.006Z,13.32
2022-11-28T16:53:45.325Z,15.15
2022-11-28T16:58:47.642Z,10.38
2022-11-28T17:03:52.484Z,11.32
2022-11-28T17:08:56.231Z,11.55
2022-11-28T17:14:02.298Z,8.30
2022-11-28T17:19:05.607Z,17.15
2022-11-28T17:24:22.611Z,11.23
2022-11-28T17:29:28.756Z,8.75
2022-11-28T17:34:32.889Z,13.50
2022-11-28T17:39:35.315Z,8.88
2022-11-28T17:44:39.134Z,10.43
2022-11-28T17:49:46.080Z,12.50
2022-11-28T17:54:48.758Z,10.50
2022-11-28T17:59:53.187Z,10.43
2022-11-28T18:04:55.564Z,12.65
2022-11-28T18:09:58.461Z,11.32
2022-11-28T18:15:01.105Z,7.35
2022-11-28T18:20:05.173Z,7.68
2022-11-28T18:25:08.401Z,14.43
2022-11-28T18:30:12.402Z,6.93
2022-11-28T18:35:15.168Z,9.98
2022-11-28T18:40:19.100Z,8.20
2022-11-28T18:45:21.790Z,14.20
2022-11-28T18:50:24.508Z,8.32
2022-11-28T18:55:26.948Z,10.20
2022-11-28T19:00:29.630Z,11.25
2022-11-28T19:05:37.847Z,9.35
2022-11-28T19:10:41.801Z,11.35
2022-11-28T19:15:44.490Z,12.90
2022-11-28T19:20:47.340Z,12.05
2022-11-28T19:25:50.025Z,14.30
2022-11-28T19:30:53.637Z,14.98
2022-11-28T19:36:00.486Z,10.90
2022-11-28T19:41:22.508Z,6.55
2022-11-28T19:46:29.154Z,7.35
2022-11-28T19:51:35.189Z,9.30
2022-11-28T19:56:37.730Z,10.43
2022-11-28T20:01:40.509Z,11.13
2022-11-28T20:06:43.635Z,17.30
2022-11-28T20:11:46.178Z,21.98
2022-11-28T20:16:48.679Z,15.80
2022-11-28T20:21:51.436Z,13.68
2022-11-28T20:26:56.954Z,13.32
2022-11-28T20:31:59.513Z,9.68
2022-11-28T20:37:02.321Z,11.77
2022-11-28T20:42:04.853Z,9.75
2022-11-28T20:47:07.873Z,20.75
2022-11-28T20:52:10.089Z,17.08
2022-11-28T20:57:21.432Z,11.48
2022-11-28T21:02:24.381Z,10.48
2022-11-28T21:07:27.105Z,9.27
2022-11-28T21:12:29.353Z,13.02
2022-11-28T21:17:31.575Z,12.27
2022-11-28T21:22:33.753Z,8.20
2022-11-28T21:27:36.037Z,9.15
2022-11-28T21:32:38.338Z,11.40
2022-11-28T21:37:40.580Z,15.82
2022-11-28T21:42:42.826Z,11.27
2022-11-28T21:47:45.514Z,10.68
2022-11-28T21:52:47.737Z,13.02
2022-11-28T21:57:49.918Z,11.63
2022-11-28T22:02:52.464Z,12.63
2022-11-28T22:07:54.824Z,13.77
2022-11-28T22:12:58.101Z,13.65
2022-11-28T22:18:00.250Z,24.60
2022-11-28T22:23:03.869Z,19.35
2022-11-28T22:28:06.320Z,19.25
2022-11-28T22:33:08.583Z,15.95
2022-11-28T22:38:11.262Z,13.65
2022-11-28T22:43:14.519Z,9.68
2022-11-28T22:48:16.666Z,8.38
2022-11-28T22:53:18.909Z,8.57
2022-11-28T22:58:21.104Z,6.85
2022-11-28T23:03:23.460Z,6.95
2022-11-28T23:08:25.819Z,8.55
2022-11-28T23:13:28.542Z,7.63
2022-11-28T23:18:31.015Z,10.32
2022-11-28T23:23:34.934Z,5.43
2022-11-28T23:28:38.389Z,6.65
2022-11-28T23:33:42.149Z,5.78
2022-11-28T23:38:46.217Z,7.80
2022-11-28T23:43:48.710Z,5.47
2022-11-28T23:48:51.226Z,6.10
2022-11-28T23:53:53.932Z,7.40
2022-11-28T23:58:57.486Z,7.03
